Time;durP1;ratioP1;P1;durP2;ratioP2;P2;SDS_P1;SDS_P2;PMS_P1;PMS_P2;Temp;Humidity;BMP_temperature;BMP_pressure;BME280_temperature;BME280_humidity;BME280_pressure;Samples;Min_cycle;Max_cycle;Signal;HPM_P1;HPM_P2
2023/02/17 00:00:23;;;;;;;;;;;179.40;2252.80;;;;;;5046485;28;20537;-79
2023/02/17 00:02:48;;;;;;;130.63;67.38;;;179.40;2252.80;;;;;;5059953;28;20316;-80
2023/02/17 00:05:14;;;;;;;;;;;179.40;2252.80;;;;;;5064178;28;20104;-79
2023/02/17 00:07:40;;;;;;;122.80;64.32;;;179.40;2252.80;;;;;;5051019;28;19904;-79
2023/02/17 00:10:06;;;;;;;;;;;179.40;2252.80;;;;;;5054472;28;20032;-78
2023/02/17 00:12:32;;;;;;;134.23;70.65;;;179.40;2252.80;;;;;;5042652;28;19909;-78
2023/02/17 00:14:58;;;;;;;;;;;179.40;2252.80;;;;;;5053328;28;20176;-78
2023/02/17 00:17:23;;;;;;;137.05;71.38;;;179.40;2252.80;;;;;;5043921;28;20387;-79
2023/02/17 00:19:49;;;;;;;;;;;179.30;2252.80;;;;;;5035346;28;20111;-78
2023/02/17 00:22:14;;;;;;;136.27;73.25;;;179.30;2252.80;;;;;;5053070;28;19904;-78
2023/02/17 00:24:40;;;;;;;;;;;179.30;2252.80;;;;;;5046659;28;20091;-78
2023/02/17 00:27:06;;;;;;;141.32;73.75;;;179.30;2252.80;;;;;;5067029;28;19908;-78
2023/02/17 00:29:32;;;;;;;;;;;179.30;2252.80;;;;;;5043672;28;20098;-78
2023/02/17 00:31:58;;;;;;;92.70;49.13;;;179.30;2252.80;;;;;;5050937;28;19928;-78
2023/02/17 00:34:24;;;;;;;;;;;179.20;2252.80;;;;;;5052704;28;20771;-78
2023/02/17 00:36:50;;;;;;;136.55;71.70;;;154.30;2252.80;;;;;;5063973;28;19915;-78
2023/02/17 00:39:16;;;;;;;;;;;154.10;2252.80;;;;;;5051449;28;20049;-77
2023/02/17 00:41:42;;;;;;;132.77;67.88;;;154.00;2252.80;;;;;;5054368;28;19947;-77
2023/02/17 00:44:16;;;;;;;137.02;68.97;;;154.00;2252.80;;;;;;5047962;28;20020;-78
2023/02/17 00:46:41;;;;;;;112.03;56.25;;;153.80;2252.80;;;;;;5065512;28;20014;-78
2023/02/17 00:49:07;;;;;;;;;;;153.60;2252.80;;;;;;5044786;28;20391;-77
2023/02/17 00:51:33;;;;;;;105.93;54.55;;;128.90;2252.80;;;;;;5051764;28;19912;-78
2023/02/17 00:53:58;;;;;;;;;;;153.80;2252.80;;;;;;5052055;28;20094;-77
2023/02/17 00:56:24;;;;;;;103.53;53.05;;;128.60;2252.80;;;;;;5050743;28;19904;-76
2023/02/17 00:58:50;;;;;;;;;;;128.40;2252.80;;;;;;5043971;28;20025;-76
2023/02/17 01:01:15;;;;;;;94.38;47.40;;;128.40;2252.80;;;;;;5047743;28;19908;-77
2023/02/17 01:03:41;;;;;;;;;;;128.20;2252.80;;;;;;5045800;28;20483;-78
2023/02/17 01:06:09;;;;;;;106.63;51.17;;;103.30;2227.20;;;;;;5053461;28;19951;-78
2023/02/17 01:08:35;;;;;;;94.65;49.30;;;103.30;2227.20;;;;;;5052341;28;20110;-78
2023/02/17 01:11:01;;;;;;;;;;;103.20;2227.20;;;;;;5050544;28;20486;-76
2023/02/17 01:13:26;;;;;;;105.45;51.92;;;103.30;2227.20;;;;;;5047646;28;19909;-77
2023/02/17 01:15:52;;;;;;;;;;;103.30;2227.20;;;;;;5065189;28;20067;-78
2023/02/17 01:18:21;;;;;;;114.72;58.30;;;103.30;2227.20;;;;;;5079493;28;19911;-77
2023/02/17 01:20:47;;;;;;;113.60;57.78;;;128.00;2252.80;;;;;;5049370;28;20029;-78
2023/02/17 01:23:13;;;;;;;;;;;128.00;2252.80;;;;;;5044771;28;20375;-77
2023/02/17 01:25:41;;;;;;;105.15;55.60;;;128.10;2252.80;;;;;;5042073;28;19987;-78
2023/02/17 01:28:10;;;;;;;114.32;57.10;;;128.20;2252.80;;;;;;5058891;28;20051;-78
2023/02/17 01:30:36;;;;;;;104.22;55.60;;;128.40;2252.80;;;;;;5052842;28;20029;-78
2023/02/17 01:33:01;;;;;;;;;;;128.40;2252.80;;;;;;5040370;28;20502;-78
2023/02/17 01:35:27;;;;;;;114.32;60.67;;;128.50;2252.80;;;;;;5038998;28;19912;-78
2023/02/17 01:37:52;;;;;;;;;;;128.60;2252.80;;;;;;5045637;28;20035;-78
2023/02/17 01:40:18;;;;;;;112.63;55.97;;;128.50;2252.80;;;;;;5063059;28;19917;-78
2023/02/17 01:42:44;;;;;;;;;;;128.50;2252.80;;;;;;5055050;28;20103;-78
2023/02/17 01:45:19;;;;;;;110.80;56.97;;;128.40;2252.80;;;;;;5049614;28;20358;-78
2023/02/17 01:47:56;;;;;;;114.03;61.03;;;128.00;2252.80;;;;;;5047963;28;20504;-76
2023/02/17 01:50:27;;;;;;;123.22;60.03;;;103.10;2227.20;;;;;;5047072;28;20033;-76
2023/02/17 01:52:54;;;;;;;114.25;58.17;;;102.80;2227.20;;;;;;5050333;28;20470;-76
2023/02/17 01:55:22;;;;;;;149.10;70.68;;;102.90;2227.20;;;;;;5046022;28;20470;-77
2023/02/17 01:57:50;;;;;;;119.90;60.22;;;103.10;2227.20;;;;;;5048200;28;20035;-76
2023/02/17 02:00:18;;;;;;;121.10;63.58;;;103.30;2227.20;;;;;;5057887;28;20037;-76
2023/02/17 02:02:47;;;;;;;120.40;64.00;;;128.00;2252.80;;;;;;5051936;28;20031;-76
2023/02/17 02:05:14;;;;;;;121.10;63.78;;;128.20;2252.80;;;;;;5046505;28;20048;-75
2023/02/17 02:07:42;;;;;;;115.78;56.65;;;128.20;2252.80;;;;;;5055484;28;20025;-75
2023/02/17 02:10:12;;;;;;;119.75;61.83;;;128.20;2252.80;;;;;;5063457;28;20032;-75
2023/02/17 02:12:40;;;;;;;126.82;63.83;;;128.20;2252.80;;;;;;5047240;28;20378;-76
2023/02/17 02:15:13;;;;;;;124.93;62.88;;;128.10;2252.80;;;;;;5053931;28;20082;-76
2023/02/17 02:18:06;;;;;;;128.05;62.83;;;128.10;2252.80;;;;;;5038479;28;20100;-76
2023/02/17 02:20:56;;;;;;;137.85;65.43;;;128.00;2252.80;;;;;;5038913;28;20071;-76
2023/02/17 02:23:38;;;;;;;131.70;67.28;;;128.00;2252.80;;;;;;5038968;28;20025;-76
2023/02/17 02:26:36;;;;;;;133.75;68.60;;;128.10;2252.80;;;;;;5042920;28;20159;-76
2023/02/17 02:29:26;;;;;;;134.02;68.63;;;128.20;2252.80;;;;;;5054032;28;20441;-76
2023/02/17 02:31:58;;;;;;;126.38;68.07;;;128.30;2252.80;;;;;;5049548;28;20071;-77
2023/02/17 02:34:30;;;;;;;128.52;65.60;;;128.00;2252.80;;;;;;5046799;28;20397;-77
2023/02/17 02:37:22;;;;;;;126.10;65.53;;;103.30;2227.20;;;;;;5071328;28;20128;-76
2023/02/17 02:39:51;;;;;;;143.85;70.78;;;103.20;2227.20;;;;;;5041718;28;20112;-77
2023/02/17 02:42:20;;;;;;;135.80;69.60;;;103.20;2227.20;;;;;;5056390;28;20501;-76
2023/02/17 02:44:46;;;;;;;139.20;70.22;;;103.30;2227.20;;;;;;5056240;28;20021;-76
2023/02/17 02:47:43;;;;;;;147.75;73.25;;;103.30;2227.20;;;;;;5054508;28;20040;-77
2023/02/17 02:50:15;;;;;;;139.88;71.78;;;103.30;2227.20;;;;;;5056126;28;20060;-76
2023/02/17 02:52:55;;;;;;;137.48;65.20;;;103.20;2227.20;;;;;;5030015;28;20458;-76
2023/02/17 02:56:08;;;;;;;127.28;66.13;;;103.10;2227.20;;;;;;5054523;28;20079;-76
2023/02/17 02:58:53;;;;;;;132.20;68.47;;;103.10;2227.20;;;;;;5054669;28;20037;-77
2023/02/17 03:01:24;;;;;;;137.18;68.05;;;103.10;2227.20;;;;;;5054211;28;20147;-76
2023/02/17 03:04:17;;;;;;;137.73;71.07;;;102.90;2227.20;;;;;;5037781;28;20127;-77
2023/02/17 03:07:19;;;;;;;125.00;66.88;;;102.70;2227.20;;;;;;5038008;28;20079;-77
2023/02/17 03:09:56;;;;;;;119.50;61.17;;;102.70;2227.20;;;;;;5055562;28;20029;-77
2023/02/17 03:12:23;;;;;;;125.10;65.30;;;102.70;2227.20;;;;;;5054143;28;20037;-77
2023/02/17 03:14:53;;;;;;;122.35;62.45;;;102.50;2227.20;;;;;;5054201;28;20025;-77
2023/02/17 03:17:18;;;;;;;128.93;64.85;;;102.60;2227.20;;;;;;5055652;28;20508;-78
2023/02/17 03:19:47;;;;;;;;;;;102.50;2227.20;;;;;;5054505;28;20163;-78
2023/02/17 03:22:31;;;;;;;125.20;63.17;;;102.40;2227.20;;;;;;5044360;28;19916;-77
2023/02/17 03:24:58;;;;;;;125.45;60.70;;;102.40;2227.20;;;;;;5054422;28;20378;-77
2023/02/17 03:27:24;;;;;;;131.68;64.03;;;102.50;2227.20;;;;;;5054336;28;20032;-77
2023/02/17 03:29:50;;;;;;;;;;;102.60;2227.20;;;;;;5054447;28;20033;-77
2023/02/17 03:32:15;;;;;;;117.38;57.63;;;102.80;2227.20;;;;;;5053924;28;20345;-76
2023/02/17 03:34:41;;;;;;;;;;;103.00;2227.20;;;;;;5054238;28;20370;-77
2023/02/17 03:37:07;;;;;;;113.25;57.90;;;103.10;2227.20;;;;;;5053723;28;19950;-76
2023/02/17 03:39:32;;;;;;;;;;;103.20;2227.20;;;;;;5055550;28;20017;-75
2023/02/17 03:41:58;;;;;;;121.18;61.47;;;103.30;2227.20;;;;;;5053790;28;19943;-77
2023/02/17 03:44:23;;;;;;;;;;;103.30;2227.20;;;;;;5053859;28;20045;-77
2023/02/17 03:46:49;;;;;;;121.22;63.42;;;103.30;2227.20;;;;;;5053233;28;19905;-77
2023/02/17 03:49:15;;;;;;;;;;;103.30;2227.20;;;;;;5053570;28;20033;-77
2023/02/17 03:51:40;;;;;;;124.35;62.03;;;128.00;2252.80;;;;;;5052919;28;19905;-76
2023/02/17 03:54:06;;;;;;;;;;;103.30;2227.20;;;;;;5055450;28;20017;-78
2023/02/17 03:56:32;;;;;;;136.52;67.57;;;128.10;2252.80;;;;;;5054452;28;19954;-76
2023/02/17 03:58:57;;;;;;;;;;;128.10;2252.80;;;;;;5053776;28;20017;-76
2023/02/17 04:01:23;;;;;;;141.07;68.75;;;128.20;2252.80;;;;;;5054764;28;19905;-77
2023/02/17 04:03:49;;;;;;;;;;;128.10;2252.80;;;;;;5052868;28;20040;-77
2023/02/17 04:06:15;;;;;;;128.32;63.47;;;128.10;2252.80;;;;;;5054670;28;19967;-77
2023/02/17 04:08:40;;;;;;;;;;;128.00;2252.80;;;;;;5053658;28;20021;-77
2023/02/17 04:11:08;;;;;;;123.80;61.70;;;103.30;2227.20;;;;;;5053142;28;19923;-77
2023/02/17 04:13:35;;;;;;;122.63;67.43;;;103.20;2227.20;;;;;;5052567;28;20025;-77
2023/02/17 04:16:02;;;;;;;131.30;68.38;;;103.30;2227.20;;;;;;5053366;28;20017;-77
2023/02/17 04:18:30;;;;;;;122.38;64.70;;;103.20;2227.20;;;;;;5052813;28;20028;-77
2023/02/17 04:20:56;;;;;;;130.35;67.60;;;103.30;2227.20;;;;;;5053305;28;20031;-77
2023/02/17 04:23:22;;;;;;;;;;;128.00;2252.80;;;;;;5053238;28;20033;-77
2023/02/17 04:25:48;;;;;;;110.73;60.03;;;128.10;2252.80;;;;;;5052736;28;19904;-77
2023/02/17 04:28:15;;;;;;;127.18;66.75;;;128.00;2252.80;;;;;;5053261;28;20021;-78
2023/02/17 04:30:46;;;;;;;130.20;67.20;;;128.00;2252.80;;;;;;5052777;28;20041;-77
2023/02/17 04:33:12;;;;;;;131.50;66.95;;;128.00;2252.80;;;;;;5052780;28;20074;-78
2023/02/17 04:35:38;;;;;;;;;;;103.20;2227.20;;;;;;5053163;28;20407;-77
2023/02/17 04:38:04;;;;;;;125.38;63.88;;;128.00;2252.80;;;;;;5040911;28;19963;-76
2023/02/17 04:40:30;;;;;;;137.15;64.13;;;103.30;2227.20;;;;;;5066818;28;20049;-76
2023/02/17 04:42:56;;;;;;;;;;;103.30;2227.20;;;;;;5040820;28;20375;-76
2023/02/17 04:45:22;;;;;;;122.30;64.63;;;103.30;2227.20;;;;;;5053988;28;19911;-75
2023/02/17 04:47:48;;;;;;;123.88;65.43;;;103.20;2227.20;;;;;;5052333;28;20379;-76
2023/02/17 04:50:14;;;;;;;;;;;103.10;2227.20;;;;;;5052525;28;20037;-76
2023/02/17 04:52:39;;;;;;;120.47;63.72;;;102.90;2227.20;;;;;;5052625;28;19911;-76
2023/02/17 04:55:05;;;;;;;;;;;102.80;2227.20;;;;;;5052816;28;20485;-75
2023/02/17 04:57:31;;;;;;;121.82;64.32;;;102.80;2227.20;;;;;;5052307;28;20377;-75
2023/02/17 04:59:57;;;;;;;;;;;102.90;2227.20;;;;;;5052697;28;20039;-75
2023/02/17 05:02:25;;;;;;;114.05;59.17;;;102.70;2227.20;;;;;;5052311;28;19908;-76
2023/02/17 05:04:52;;;;;;;133.18;68.82;;;102.70;2227.20;;;;;;5051787;28;20036;-75
2023/02/17 05:07:18;;;;;;;123.80;64.80;;;102.70;2227.20;;;;;;5053654;28;20033;-76
2023/02/17 05:09:43;;;;;;;122.55;65.85;;;102.70;2227.20;;;;;;5051835;28;20119;-75
2023/02/17 05:12:09;;;;;;;;;;;102.80;2227.20;;;;;;5052506;28;20124;-76
2023/02/17 05:14:35;;;;;;;113.05;61.13;;;102.80;2227.20;;;;;;5052071;28;19905;-76
2023/02/17 05:17:00;;;;;;;;;;;102.90;2227.20;;;;;;5053814;28;20033;-77
2023/02/17 05:19:26;;;;;;;135.35;67.93;;;103.00;2227.20;;;;;;5051811;28;20377;-76
2023/02/17 05:21:51;;;;;;;;;;;102.80;2227.20;;;;;;5052113;28;20024;-76
2023/02/17 05:24:17;;;;;;;126.43;65.00;;;102.80;2227.20;;;;;;5052029;28;20247;-76
2023/02/17 05:26:43;;;;;;;;;;;102.90;2227.20;;;;;;5051718;28;20029;-77
2023/02/17 05:29:08;;;;;;;156.70;76.07;;;103.00;2227.20;;;;;;5051541;28;20420;-76
2023/02/17 05:31:34;;;;;;;;;;;102.90;2227.20;;;;;;5052419;28;20025;-76
2023/02/17 05:33:59;;;;;;;125.63;62.60;;;102.80;2227.20;;;;;;5052908;28;19905;-76
2023/02/17 05:36:25;;;;;;;;;;;102.90;2227.20;;;;;;5052105;28;20024;-76
2023/02/17 05:38:51;;;;;;;128.63;63.08;;;102.80;2227.20;;;;;;5051515;28;20342;-76
2023/02/17 05:41:18;;;;;;;;;;;102.80;2227.20;;;;;;5052003;28;20044;-76
2023/02/17 05:43:44;;;;;;;129.90;63.35;;;102.90;2227.20;;;;;;5053052;28;19909;-77
2023/02/17 05:46:10;;;;;;;207.80;116.82;;;102.90;2227.20;;;;;;5053180;28;20025;-77
2023/02/17 05:48:35;;;;;;;;;;;102.90;2227.20;;;;;;5051491;28;20394;-76
2023/02/17 05:51:01;;;;;;;147.45;75.20;;;103.00;2227.20;;;;;;5052825;28;20357;-76
2023/02/17 05:53:27;;;;;;;;;;;102.90;2227.20;;;;;;5053355;28;20028;-76
2023/02/17 05:55:52;;;;;;;137.07;70.32;;;102.90;2227.20;;;;;;5052931;28;19988;-76
2023/02/17 05:58:18;;;;;;;;;;;102.60;2227.20;;;;;;5051739;28;20031;-77
2023/02/17 06:00:44;;;;;;;134.90;67.90;;;102.60;2227.20;;;;;;5051516;28;19905;-76
2023/02/17 06:03:11;;;;;;;149.73;71.45;;;102.50;2227.20;;;;;;5040910;28;20032;-77
2023/02/17 06:05:37;;;;;;;140.80;70.00;;;102.40;2227.20;;;;;;5051487;28;20104;-76
2023/02/17 06:08:02;;;;;;;;;;;77.70;2227.20;;;;;;5051821;28;20421;-77
2023/02/17 06:10:28;;;;;;;128.05;67.03;;;77.40;2227.20;;;;;;5052773;28;19920;-77
2023/02/17 06:12:54;;;;;;;;;;;77.30;2227.20;;;;;;5053396;28;20055;-77
2023/02/17 06:15:20;;;;;;;138.93;68.47;;;77.40;2227.20;;;;;;5051638;28;19958;-77
2023/02/17 06:17:45;;;;;;;;;;;77.60;2227.20;;;;;;5053312;28;20025;-77
2023/02/17 06:20:12;;;;;;;140.70;73.75;;;102.40;2227.20;;;;;;5051538;28;20054;-77
2023/02/17 06:22:37;;;;;;;165.40;82.30;;;102.60;2227.20;;;;;;5051375;28;20044;-77
2023/02/17 06:25:03;;;;;;;;;;;102.70;2227.20;;;;;;5047337;28;20486;-76
2023/02/17 06:27:29;;;;;;;140.50;71.30;;;102.80;2227.20;;;;;;5030952;28;19909;-76
2023/02/17 06:29:54;;;;;;;;;;;102.90;2227.20;;;;;;5038067;28;20036;-76
2023/02/17 06:32:20;;;;;;;141.73;70.80;;;103.00;2227.20;;;;;;5041683;28;19905;-77
2023/02/17 06:34:45;;;;;;;;;;;102.90;2227.20;;;;;;5040951;28;20504;-77
2023/02/17 06:37:11;;;;;;;169.98;90.30;;;103.10;2227.20;;;;;;5042366;28;19908;-76
2023/02/17 06:39:37;;;;;;;;;;;103.20;2227.20;;;;;;5064483;28;20025;-77
2023/02/17 06:42:02;;;;;;;205.73;109.30;;;128.00;2252.80;;;;;;5041454;28;20385;-76
2023/02/17 06:44:28;;;;;;;;;;;128.10;2252.80;;;;;;5048513;28;20028;-77
2023/02/17 06:46:54;;;;;;;187.68;96.55;;;128.20;2252.80;;;;;;5038641;28;19905;-75
2023/02/17 06:49:19;;;;;;;;;;;128.20;2252.80;;;;;;5043066;28;20025;-74
2023/02/17 06:51:45;;;;;;;171.02;86.10;;;128.30;2252.80;;;;;;5063165;28;19984;-76
2023/02/17 06:54:11;;;;;;;;;;;128.40;2252.80;;;;;;5048676;28;20021;-75
2023/02/17 06:56:36;;;;;;;157.45;82.57;;;128.50;2252.80;;;;;;5043657;28;19905;-75
2023/02/17 06:59:02;;;;;;;;;;;128.50;2252.80;;;;;;5044695;28;20061;-75
2023/02/17 07:01:28;;;;;;;195.65;102.05;;;128.60;2252.80;;;;;;5049457;28;19904;-75
2023/02/17 07:03:54;;;;;;;;;;;128.60;2252.80;;;;;;5066175;28;20027;-75
2023/02/17 07:06:20;;;;;;;204.82;108.15;;;128.70;2252.80;;;;;;5047239;28;19904;-75
2023/02/17 07:08:46;;;;;;;163.75;88.75;;;128.80;2252.80;;;;;;5048806;28;20063;-75
2023/02/17 07:11:12;;;;;;;;;;;128.90;2252.80;;;;;;5047469;28;20450;-75
2023/02/17 07:13:39;;;;;;;137.00;75.47;;;153.60;2252.80;;;;;;5055435;28;19960;-75
2023/02/17 07:16:06;;;;;;;132.57;72.78;;;153.70;2252.80;;;;;;5061654;28;20031;-75
2023/02/17 07:18:32;;;;;;;136.00;73.53;;;153.90;2252.80;;;;;;5058182;28;20097;-72
2023/02/17 07:20:57;;;;;;;;;;;153.90;2252.80;;;;;;5063892;28;20154;-73
2023/02/17 07:23:23;;;;;;;139.13;73.93;;;154.00;2252.80;;;;;;5061203;28;19905;-74
2023/02/17 07:25:49;;;;;;;;;;;154.10;2252.80;;;;;;5032241;28;20099;-75
2023/02/17 07:28:15;;;;;;;140.48;76.25;;;154.10;2252.80;;;;;;5058500;28;19913;-75
2023/02/17 07:30:41;;;;;;;;;;;154.10;2252.80;;;;;;5044269;28;20410;-75
2023/02/17 07:33:07;;;;;;;138.75;75.47;;;154.10;2252.80;;;;;;5084729;28;19948;-78
2023/02/17 07:35:33;;;;;;;;;;;154.20;2252.80;;;;;;5044788;28;20122;-75
2023/02/17 07:37:59;;;;;;;134.07;73.88;;;154.10;2252.80;;;;;;5046152;28;20284;-77
2023/02/17 07:40:26;;;;;;;138.13;73.43;;;154.10;2252.80;;;;;;5035418;28;20098;-76
2023/02/17 07:42:53;;;;;;;138.30;75.10;;;154.20;2252.80;;;;;;5044643;28;20045;-76
2023/02/17 07:45:19;;;;;;;141.05;78.53;;;154.40;2252.80;;;;;;5043016;28;20048;-77
2023/02/17 07:47:44;;;;;;;;;;;179.20;2252.80;;;;;;5041291;28;20056;-77
2023/02/17 07:50:10;;;;;;;153.40;83.20;;;179.20;2252.80;;;;;;5046079;28;19984;-74
2023/02/17 07:52:36;;;;;;;;;;;179.40;2252.80;;;;;;5048351;28;20017;-73
2023/02/17 07:55:02;;;;;;;152.20;81.13;;;179.40;2252.80;;;;;;5051325;28;20278;-76
2023/02/17 07:57:29;;;;;;;146.57;84.43;;;179.40;2252.80;;;;;;5053591;28;20029;-77
2023/02/17 07:59:55;;;;;;;152.75;83.30;;;179.40;2252.80;;;;;;5062889;28;20471;-76
2023/02/17 08:02:20;;;;;;;;;;;179.70;2252.80;;;;;;5050309;28;20050;-77
2023/02/17 08:04:46;;;;;;;151.57;83.75;;;179.80;2252.80;;;;;;5044455;28;19904;-75
2023/02/17 08:07:12;;;;;;;;;;;179.90;2252.80;;;;;;5061175;28;20081;-75
2023/02/17 08:15:08;;;;;;;144.80;82.45;;;204.80;2252.80;;;;;;5042558;28;20056;-77
2023/02/17 08:17:34;;;;;;;141.70;81.60;;;204.80;2252.80;;;;;;5040408;28;20032;-77
2023/02/17 08:20:00;;;;;;;;;;;204.90;2252.80;;;;;;5060450;28;20025;-77
2023/02/17 08:22:25;;;;;;;140.32;80.35;;;205.20;2252.80;;;;;;5047785;28;20315;-76
2023/02/17 08:24:52;;;;;;;139.88;83.05;;;205.20;2252.80;;;;;;5045663;28;20051;-76
2023/02/17 08:27:18;;;;;;;;;;;205.20;2252.80;;;;;;5056593;28;20033;-75
2023/02/17 08:29:44;;;;;;;137.23;81.43;;;205.30;2252.80;;;;;;5036494;28;19919;-75
2023/02/17 08:32:12;;;;;;;131.13;78.00;;;205.40;2252.80;;;;;;5059905;28;20082;-75
2023/02/17 08:34:38;;;;;;;136.68;79.05;;;205.50;2252.80;;;;;;5048941;28;20045;-76
2023/02/17 08:37:04;;;;;;;;;;;205.70;2252.80;;;;;;5048866;28;20044;-77
2023/02/17 08:39:30;;;;;;;131.82;71.90;;;205.70;2252.80;;;;;;5051939;28;19930;-76
2023/02/17 08:41:56;;;;;;;134.52;74.65;;;230.40;2252.80;;;;;;5043031;28;20051;-77
2023/02/17 08:44:22;;;;;;;128.20;75.15;;;230.40;2252.80;;;;;;5046192;28;20032;-75
2023/02/17 08:46:49;;;;;;;;;;;230.50;2252.80;;;;;;5050109;28;20187;-77
2023/02/17 08:49:16;;;;;;;102.65;57.78;;;230.50;2252.80;;;;;;5039185;28;19998;-75
2023/02/17 08:51:43;;;;;;;130.80;76.85;;;230.50;2252.80;;;;;;5040896;28;20131;-76
2023/02/17 08:54:09;;;;;;;123.93;70.00;;;230.60;2252.80;;;;;;5050298;28;20021;-75
2023/02/17 08:56:37;;;;;;;131.23;78.97;;;230.60;2252.80;;;;;;5048351;28;20485;-75
2023/02/17 08:59:03;;;;;;;124.45;74.80;;;230.70;2252.80;;;;;;5061009;28;20024;-76
2023/02/17 09:01:30;;;;;;;127.75;74.20;;;230.70;2252.80;;;;;;5042200;28;20032;-76
2023/02/17 09:03:58;;;;;;;123.40;73.43;;;230.90;2252.80;;;;;;5042984;28;20041;-77
2023/02/17 09:06:30;;;;;;;124.20;72.55;;;230.90;2252.80;;;;;;5056452;28;20509;-76
2023/02/17 09:08:55;;;;;;;122.68;69.13;;;231.10;2252.80;;;;;;5062164;28;20040;-76
2023/02/17 09:11:21;;;;;;;126.55;71.75;;;231.20;2252.80;;;;;;5047351;28;20049;-77
2023/02/17 09:13:47;;;;;;;;;;;231.10;2252.80;;;;;;5043977;28;20031;-77
2023/02/17 09:16:12;;;;;;;106.75;60.55;;;256.00;2252.80;;;;;;5044534;28;19908;-76
2023/02/17 09:18:38;;;;;;;;;;;256.10;2252.80;;;;;;5063725;28;20683;-75
2023/02/17 09:21:09;;;;;;;85.72;49.17;;;256.20;2252.80;;;;;;5065041;28;19908;-75
2023/02/17 09:23:35;;;;;;;84.45;48.47;;;256.40;2252.80;;;;;;5067615;28;20485;-76
2023/02/17 09:26:08;;;;;;;75.97;46.50;;;256.60;2252.80;;;;;;5043951;28;20032;-76
2023/02/17 09:28:34;;;;;;;78.82;47.45;;;256.80;2252.80;;;;;;5045428;28;20033;-76
2023/02/17 09:31:19;;;;;;;77.13;48.53;;;281.60;2278.40;;;;;;5064880;28;20501;-76
2023/02/17 09:33:46;;;;;;;71.35;45.38;;;281.80;2278.40;;;;;;5063037;28;20024;-74
2023/02/17 09:36:15;;;;;;;77.75;45.40;;;282.00;2278.40;;;;;;5063660;28;20434;-75
2023/02/17 09:38:42;;;;;;;84.65;48.05;;;282.20;2278.40;;;;;;5051685;28;20025;-75
2023/02/17 09:41:34;;;;;;;83.70;44.70;;;282.50;2278.40;;;;;;5062113;28;20072;-75
2023/02/17 09:44:00;;;;;;;73.38;46.08;;;307.30;2304.00;;;;;;5019654;28;20109;-75
2023/02/17 09:46:28;;;;;;;82.95;48.70;;;307.50;2304.00;;;;;;5059316;28;20028;-76
2023/02/17 09:49:03;;;;;;;77.57;46.20;;;307.70;2304.00;;;;;;5027166;28;20028;-76
2023/02/17 09:51:53;;;;;;;62.70;38.28;;;307.90;2304.00;;;;;;5061450;28;20155;-75
2023/02/17 09:54:26;;;;;;;46.83;27.25;;;308.10;2304.00;;;;;;5046272;28;20032;-74
2023/02/17 09:56:53;;;;;;;45.55;28.23;;;332.90;2329.60;;;;;;5051547;28;20090;-75
2023/02/17 09:59:19;;;;;;;47.00;29.52;;;333.00;2329.60;;;;;;5041954;28;20126;-74
2023/02/17 10:01:47;;;;;;;46.55;28.20;;;333.20;2329.60;;;;;;5062945;28;20171;-75
2023/02/17 10:04:54;;;;;;;40.65;26.55;;;333.40;2329.60;;;;;;5058380;28;20020;-75
2023/02/17 10:07:24;;;;;;;;;;;333.50;2329.60;;;;;;4945699;28;20393;-78
2023/02/17 10:10:08;;;;;;;40.40;23.88;;;358.40;2329.60;;;;;;4968485;28;20026;-75
2023/02/17 10:12:40;;;;;;;36.90;24.23;;;358.50;2252.80;;;;;;4949237;28;20043;-77
2023/02/17 10:15:17;;;;;;;38.92;23.88;;;358.60;2176.00;;;;;;4962653;28;20538;-76
2023/02/17 10:17:56;;;;;;;34.63;22.50;;;358.80;2124.80;;;;;;4991404;28;20136;-76
2023/02/17 10:20:30;;;;;;;38.38;23.52;;;359.00;2124.80;;;;;;4959317;28;20114;-78
2023/02/17 10:23:16;;;;;;;40.35;23.35;;;359.10;2073.60;;;;;;4991894;28;20047;-77
2023/02/17 10:25:56;;;;;;;35.60;23.63;;;384.00;2022.40;;;;;;4960851;28;20031;-78
2023/02/17 10:28:41;;;;;;;34.85;22.10;;;384.20;1971.20;;;;;;4967644;28;20032;-76
2023/02/17 10:31:33;;;;;;;32.97;22.30;;;384.40;1945.60;;;;;;4969753;28;20042;-76
2023/02/17 10:34:23;;;;;;;37.63;23.48;;;384.60;1920.00;;;;;;4968104;28;20054;-75
2023/02/17 10:37:00;;;;;;;32.92;20.95;;;384.80;1843.20;;;;;;4975921;28;20038;-76
2023/02/17 10:39:44;;;;;;;33.53;22.00;;;409.70;1817.60;;;;;;5049962;28;20111;-77
2023/02/17 10:42:24;;;;;;;32.10;20.23;;;409.90;1792.00;;;;;;5020157;28;20042;-78
2023/02/17 10:44:53;;;;;;;33.25;20.45;;;410.10;1792.00;;;;;;5010216;28;20503;-78
2023/02/17 10:47:21;;;;;;;29.92;19.75;;;410.30;1740.80;;;;;;5029478;28;20045;-78
2023/02/17 10:49:50;;;;;;;30.83;19.50;;;410.40;1715.20;;;;;;5011852;28;20084;-78
2023/02/17 10:52:31;;;;;;;30.05;18.67;;;410.50;1689.60;;;;;;5008295;28;20031;-81
2023/02/17 10:55:02;;;;;;;28.25;17.10;;;435.20;1638.40;;;;;;5026711;28;20124;-80
2023/02/17 10:57:34;;;;;;;31.00;20.65;;;435.30;1638.40;;;;;;5004719;28;20039;-78
2023/02/17 11:00:00;;;;;;;26.13;17.52;;;435.40;1638.40;;;;;;5003299;28;20046;-81
2023/02/17 11:02:37;;;;;;;26.90;16.23;;;435.60;1612.80;;;;;;5018658;28;20088;-80
2023/02/17 11:05:03;;;;;;;;;;;435.70;1561.60;;;;;;5019382;28;20033;-80
2023/02/17 11:07:35;;;;;;;27.65;16.77;;;436.00;1561.60;;;;;;5014637;28;19912;-79
2023/02/17 11:10:03;;;;;;;24.10;16.45;;;436.10;1536.00;;;;;;5012872;28;20034;-79
2023/02/17 11:12:39;;;;;;;27.25;16.05;;;460.90;1561.60;;;;;;5026974;28;20123;-82
2023/02/17 11:15:16;;;;;;;26.42;16.02;;;460.90;1536.00;;;;;;5022652;28;20057;-78
2023/02/17 11:17:43;;;;;;;25.42;16.00;;;461.00;1510.40;;;;;;5026485;28;20464;-81
2023/02/17 11:20:29;;;;;;;19.65;14.88;;;461.20;1510.40;;;;;;5010379;28;20042;-77
2023/02/17 11:23:20;;;;;;;20.13;12.57;;;461.30;1484.80;;;;;;5032360;28;20511;-77
2023/02/17 11:26:14;;;;;;;20.77;13.57;;;461.40;1484.80;;;;;;5025806;28;20513;-76
2023/02/17 11:28:40;;;;;;;18.58;12.98;;;461.50;1433.60;;;;;;5004261;28;20038;-76
2023/02/17 11:31:06;;;;;;;18.10;12.50;;;461.50;1459.20;;;;;;5002539;28;20395;-77
2023/02/17 11:33:37;;;;;;;19.83;12.40;;;461.60;1459.20;;;;;;5019662;28;20030;-77
2023/02/17 11:36:05;;;;;;;20.67;12.68;;;461.60;1459.20;;;;;;5017522;28;20033;-78
2023/02/17 11:38:49;;;;;;;21.42;13.15;;;461.60;1433.60;;;;;;5005353;28;20034;-80
2023/02/17 11:41:16;;;;;;;17.88;12.80;;;486.40;1433.60;;;;;;5037075;28;20052;-78
2023/02/17 11:44:02;;;;;;;21.77;12.82;;;486.40;1433.60;;;;;;5046930;28;20112;-84
2023/02/17 11:46:46;;;;;;;19.05;12.30;;;486.60;1433.60;;;;;;5032985;28;20078;-81
2023/02/17 11:49:49;;;;;;;32.60;20.13;;;486.50;1408.00;;;;;;5034634;28;20083;-88
2023/02/17 11:52:27;;;;;;;40.85;24.48;;;486.70;1433.60;;;;;;5043788;28;20028;-81
2023/02/17 11:55:06;;;;;;;26.02;17.98;;;486.70;1433.60;;;;;;5030995;28;20045;-79
2023/02/17 11:57:40;;;;;;;29.50;18.55;;;486.60;1433.60;;;;;;5047604;28;20032;-79
2023/02/17 12:00:13;;;;;;;28.30;18.80;;;486.70;1433.60;;;;;;5063884;28;20052;-79
2023/02/17 12:02:42;;;;;;;29.15;20.50;;;486.70;1433.60;;;;;;5063569;28;20435;-78
2023/02/17 12:05:08;;;;;;;29.45;18.55;;;486.80;1433.60;;;;;;5042748;28;20481;-79
2023/02/17 12:07:52;;;;;;;38.05;26.20;;;486.70;1433.60;;;;;;5042978;28;20040;-80
2023/02/17 12:10:26;;;;;;;43.10;27.92;;;486.70;1433.60;;;;;;5019939;28;20082;-79
2023/02/17 12:13:13;;;;;;;34.63;24.10;;;486.60;1433.60;;;;;;5041281;28;20052;-79
2023/02/17 12:16:05;;;;;;;34.42;23.60;;;486.60;1459.20;;;;;;5044253;28;20020;-79
2023/02/17 12:18:46;;;;;;;42.08;25.35;;;486.70;1459.20;;;;;;5045093;28;20370;-76
2023/02/17 12:21:37;;;;;;;49.65;32.58;;;486.70;1459.20;;;;;;5041404;28;20090;-78
2023/02/17 12:24:02;;;;;;;47.88;33.63;;;486.70;1459.20;;;;;;5050031;28;20079;-78
2023/02/17 12:26:43;;;;;;;38.47;27.48;;;486.60;1433.60;;;;;;5050190;28;20572;-81
2023/02/17 12:29:20;;;;;;;63.65;50.75;;;486.50;1459.20;;;;;;5039824;28;20087;-80
2023/02/17 12:32:13;;;;;;;52.10;40.83;;;486.50;1459.20;;;;;;5048196;28;20118;-83
2023/02/17 12:34:55;;;;;;;34.50;26.10;;;486.50;1433.60;;;;;;5035361;28;20032;-87
2023/02/17 12:37:30;;;;;;;34.70;24.45;;;486.50;1433.60;;;;;;5032332;28;20071;-82